Time;durP1;ratioP1;P1;durP2;ratioP2;P2;SDS_P1;SDS_P2;PMS_P1;PMS_P2;Temp;Humidity;BMP_temperature;BMP_pressure;BME280_temperature;BME280_humidity;BME280_pressure;Samples;Min_cycle;Max_cycle;Signal;HPM_P1;HPM_P2
2023/04/07 00:00:17;;;;;;;25.52;9.45;;;;;;;;;;5033481;28;20025;-71
2023/04/07 00:02:42;;;;;;;17.15;8.18;;;;;;;;;;5025529;28;20040;-71
2023/04/07 00:05:07;;;;;;;19.45;8.52;;;;;;;;;;5030509;28;20475;-71
2023/04/07 00:07:32;;;;;;;13.88;6.03;;;;;;;;;;5031035;28;20031;-71
2023/04/07 00:09:58;;;;;;;27.83;10.38;;;;;;;;;;5030174;28;20028;-71
2023/04/07 00:12:23;;;;;;;18.70;9.43;;;;;;;;;;5031544;28;20018;-71
2023/04/07 00:14:48;;;;;;;19.20;8.77;;;;;;;;;;5031642;28;20286;-71
2023/04/07 00:17:14;;;;;;;22.17;6.97;;;;;;;;;;5030966;28;20017;-71
2023/04/07 00:19:39;;;;;;;24.85;9.85;;;;;;;;;;5031171;28;20013;-71
2023/04/07 00:22:05;;;;;;;20.13;8.43;;;;;;;;;;5031552;28;20079;-71
2023/04/07 00:24:30;;;;;;;14.35;7.88;;;;;;;;;;5032742;28;20028;-71
2023/04/07 00:26:55;;;;;;;18.52;8.48;;;;;;;;;;5030835;28;20363;-71
2023/04/07 00:29:21;;;;;;;8.10;2.00;;;;;;;;;;5030649;28;20021;-71
2023/04/07 00:31:46;;;;;;;21.15;9.50;;;;;;;;;;5031981;28;20027;-71
2023/04/07 00:34:11;;;;;;;25.20;10.87;;;;;;;;;;5030662;28;20470;-71
2023/04/07 00:36:36;;;;;;;19.57;9.10;;;;;;;;;;5033114;28;20272;-71
2023/04/07 00:39:01;;;;;;;20.83;9.98;;;;;;;;;;5031507;28;20804;-70
2023/04/07 00:41:26;;;;;;;18.60;9.23;;;;;;;;;;5030893;28;20110;-71
2023/04/07 00:43:52;;;;;;;20.87;9.60;;;;;;;;;;5031055;28;20033;-71
2023/04/07 00:46:20;;;;;;;18.98;7.65;;;;;;;;;;5030743;28;20640;-71
2023/04/07 00:48:45;;;;;;;24.73;11.48;;;;;;;;;;5030668;28;20032;-71
2023/04/07 00:51:11;;;;;;;24.23;10.85;;;;;;;;;;5031184;28;20029;-71
2023/04/07 00:53:36;;;;;;;27.25;12.07;;;;;;;;;;5031801;28;20060;-71
2023/04/07 00:56:01;;;;;;;18.80;9.95;;;;;;;;;;5031274;28;20401;-72
2023/04/07 00:58:26;;;;;;;23.70;11.97;;;;;;;;;;5030219;28;20462;-71
2023/04/07 01:00:57;;;;;;;24.65;12.30;;;;;;;;;;5027262;28;20314;-71
2023/04/07 01:03:30;;;;;;;25.02;10.77;;;;;;;;;;5032524;28;20026;-71
2023/04/07 01:06:00;;;;;;;21.92;10.35;;;;;;;;;;5034837;28;20027;-72
2023/04/07 01:08:45;;;;;;;20.63;8.18;;;;;;;;;;5028202;28;20028;-71
2023/04/07 01:11:16;;;;;;;21.52;10.68;;;;;;;;;;5029278;28;20086;-71
2023/04/07 01:13:44;;;;;;;22.88;8.57;;;;;;;;;;5029200;28;20441;-71
2023/04/07 01:16:11;;;;;;;31.80;12.88;;;;;;;;;;5029559;28;20083;-71
2023/04/07 01:18:37;;;;;;;31.20;13.52;;;;;;;;;;5030065;28;20025;-71
2023/04/07 01:21:08;;;;;;;27.45;11.55;;;;;;;;;;5025431;28;20030;-71
2023/04/07 01:23:33;;;;;;;;;;;;;;;;;;5029600;28;20025;-71
2023/04/07 01:26:03;;;;;;;25.17;12.23;;;;;;;;;;5028195;28;19909;-71
2023/04/07 01:28:31;;;;;;;29.88;13.05;;;;;;;;;;5029996;28;20021;-71
2023/04/07 01:30:57;;;;;;;27.92;14.23;;;;;;;;;;5029188;28;20505;-71
2023/04/07 01:33:23;;;;;;;28.20;13.38;;;;;;;;;;5029627;28;20030;-71
2023/04/07 01:35:48;;;;;;;30.30;14.75;;;;;;;;;;5028854;28;20028;-71
2023/04/07 01:38:14;;;;;;;31.45;13.02;;;;;;;;;;5031309;28;20026;-72
2023/04/07 01:40:40;;;;;;;28.95;12.20;;;;;;;;;;5030855;28;20040;-71
2023/04/07 01:43:05;;;;;;;30.48;14.25;;;;;;;;;;5028593;28;20511;-71
2023/04/07 01:45:33;;;;;;;30.42;14.35;;;;;;;;;;5028307;28;20485;-71
2023/04/07 01:47:58;;;;;;;28.25;14.30;;;;;;;;;;5030579;28;20430;-71
2023/04/07 01:50:24;;;;;;;30.20;13.43;;;;;;;;;;5030976;28;20071;-71
2023/04/07 01:52:51;;;;;;;28.40;14.35;;;;;;;;;;5030083;28;20021;-71
2023/04/07 01:55:16;;;;;;;29.75;14.18;;;;;;;;;;5033560;28;20016;-71
2023/04/07 01:57:41;;;;;;;27.13;13.53;;;;;;;;;;5027842;28;20029;-71
2023/04/07 02:00:07;;;;;;;29.57;13.50;;;;;;;;;;5026270;28;20684;-71
2023/04/07 02:02:35;;;;;;;29.50;13.98;;;;;;;;;;5029276;28;20389;-71
2023/04/07 02:05:04;;;;;;;33.95;14.50;;;;;;;;;;5029119;28;20576;-71
2023/04/07 02:07:32;;;;;;;34.17;15.65;;;;;;;;;;5030187;28;20029;-71
2023/04/07 02:09:59;;;;;;;33.20;13.85;;;;;;;;;;5028542;28;20075;-71
2023/04/07 02:12:26;;;;;;;37.85;15.95;;;;;;;;;;5029214;28;20382;-71
2023/04/07 02:14:51;;;;;;;31.45;14.43;;;;;;;;;;5029787;28;20455;-71
2023/04/07 02:17:17;;;;;;;34.80;15.38;;;;;;;;;;5029211;28;20068;-71
2023/04/07 02:19:43;;;;;;;30.00;15.15;;;;;;;;;;5033971;28;20509;-71
2023/04/07 02:22:10;;;;;;;28.17;14.18;;;;;;;;;;5028880;28;20120;-71
2023/04/07 02:24:35;;;;;;;35.08;15.50;;;;;;;;;;5032524;28;20022;-71
2023/04/07 02:27:00;;;;;;;35.80;15.93;;;;;;;;;;5028910;28;20544;-71
2023/04/07 02:29:26;;;;;;;39.80;16.55;;;;;;;;;;5028416;28;20272;-71
2023/04/07 02:31:51;;;;;;;30.13;14.63;;;;;;;;;;5030095;28;20398;-71
2023/04/07 02:34:16;;;;;;;36.75;16.38;;;;;;;;;;5028528;28;20059;-72
2023/04/07 02:36:41;;;;;;;34.43;16.27;;;;;;;;;;5025641;28;20025;-71
2023/04/07 02:39:07;;;;;;;37.43;17.93;;;;;;;;;;5031655;28;20272;-72
2023/04/07 02:41:33;;;;;;;40.92;17.58;;;;;;;;;;5028201;28;20280;-71
2023/04/07 02:43:58;;;;;;;37.80;17.35;;;;;;;;;;5028959;28;20393;-71
2023/04/07 02:46:23;;;;;;;39.75;16.70;;;;;;;;;;5029512;28;20476;-71
2023/04/07 02:48:48;;;;;;;43.05;16.92;;;;;;;;;;5028868;28;20509;-71
2023/04/07 02:51:14;;;;;;;43.57;18.43;;;;;;;;;;5027855;28;20106;-71
2023/04/07 02:53:39;;;;;;;39.15;18.25;;;;;;;;;;5030804;28;20268;-71
2023/04/07 02:56:05;;;;;;;34.40;16.10;;;;;;;;;;5029612;28;20474;-71
2023/04/07 02:58:30;;;;;;;39.80;17.42;;;;;;;;;;5028959;28;20270;-71
2023/04/07 03:00:55;;;;;;;36.57;16.80;;;;;;;;;;5029626;28;20386;-71
2023/04/07 03:03:20;;;;;;;40.50;17.53;;;;;;;;;;5028805;28;20318;-71
2023/04/07 03:05:46;;;;;;;45.85;17.23;;;;;;;;;;5028604;28;20359;-71
2023/04/07 03:08:11;;;;;;;40.07;17.20;;;;;;;;;;5032164;28;20095;-71
2023/04/07 03:10:36;;;;;;;44.10;19.40;;;;;;;;;;5029456;28;20280;-71
2023/04/07 03:13:01;;;;;;;50.37;20.57;;;;;;;;;;5041782;28;20401;-71
2023/04/07 03:15:26;;;;;;;49.85;21.00;;;;;;;;;;5032264;28;20333;-71
2023/04/07 03:17:52;;;;;;;57.33;21.30;;;;;;;;;;5033726;28;20104;-71
2023/04/07 03:20:17;;;;;;;62.53;24.30;;;;;;;;;;5031624;28;20299;-71
2023/04/07 03:22:43;;;;;;;60.15;22.73;;;;;;;;;;5034076;28;20355;-72
2023/04/07 03:25:08;;;;;;;61.78;23.40;;;;;;;;;;5032754;28;20048;-71
2023/04/07 03:27:34;;;;;;;77.75;26.85;;;;;;;;;;5031550;28;20049;-71
2023/04/07 03:29:59;;;;;;;81.90;29.42;;;;;;;;;;5038021;28;20029;-71
2023/04/07 03:32:24;;;;;;;75.40;27.60;;;;;;;;;;5031265;28;20033;-71
2023/04/07 03:34:49;;;;;;;78.13;27.10;;;;;;;;;;5034419;28;20268;-71
2023/04/07 03:37:15;;;;;;;92.03;30.47;;;;;;;;;;5032152;28;20040;-71
2023/04/07 03:39:40;;;;;;;85.63;28.15;;;;;;;;;;5033029;28;20267;-71
2023/04/07 03:42:06;;;;;;;81.85;27.98;;;;;;;;;;5037218;28;20444;-71
2023/04/07 03:44:31;;;;;;;88.93;29.48;;;;;;;;;;5032187;28;20021;-71
2023/04/07 03:46:57;;;;;;;85.80;29.25;;;;;;;;;;5031191;28;20025;-71
2023/04/07 03:49:22;;;;;;;90.97;28.90;;;;;;;;;;5032483;28;20083;-71
2023/04/07 03:51:47;;;;;;;93.80;29.63;;;;;;;;;;5032443;28;20065;-71
2023/04/07 03:54:12;;;;;;;78.97;27.33;;;;;;;;;;5031238;28;20029;-71
2023/04/07 03:56:38;;;;;;;95.20;30.00;;;;;;;;;;5030603;28;20469;-71
2023/04/07 03:59:03;;;;;;;81.35;30.35;;;;;;;;;;5032111;28;20463;-71
2023/04/07 04:01:28;;;;;;;88.07;29.65;;;;;;;;;;5036388;28;20048;-71
2023/04/07 04:03:53;;;;;;;83.10;26.42;;;;;;;;;;5031846;28;20087;-71
2023/04/07 04:06:18;;;;;;;74.40;26.80;;;;;;;;;;5032544;28;20025;-71
2023/04/07 04:08:44;;;;;;;89.80;27.70;;;;;;;;;;5030316;28;20075;-71
2023/04/07 04:11:09;;;;;;;74.47;25.90;;;;;;;;;;5031281;28;20033;-71
2023/04/07 04:13:34;;;;;;;74.20;26.80;;;;;;;;;;5030842;28;20303;-71
2023/04/07 04:15:59;;;;;;;79.43;27.40;;;;;;;;;;5031741;28;20032;-71
2023/04/07 04:18:25;;;;;;;79.43;26.65;;;;;;;;;;5033796;28;20366;-71
2023/04/07 04:20:50;;;;;;;63.70;25.02;;;;;;;;;;5031066;28;20025;-72
2023/04/07 04:23:15;;;;;;;64.78;22.75;;;;;;;;;;5033001;28;20028;-71
2023/04/07 04:25:40;;;;;;;70.75;24.70;;;;;;;;;;5031761;28;20041;-71
2023/04/07 04:28:05;;;;;;;63.17;23.75;;;;;;;;;;5032129;28;20032;-71
2023/04/07 04:30:31;;;;;;;62.08;22.25;;;;;;;;;;5031895;28;20020;-71
2023/04/07 04:32:56;;;;;;;69.15;22.85;;;;;;;;;;5029897;28;20025;-71
2023/04/07 04:35:21;;;;;;;66.18;21.20;;;;;;;;;;5030645;28;20022;-71
2023/04/07 04:37:47;;;;;;;61.40;19.90;;;;;;;;;;5031603;28;20014;-71
2023/04/07 04:40:13;;;;;;;62.08;21.88;;;;;;;;;;5031092;28;20021;-71
2023/04/07 04:42:38;;;;;;;53.33;20.38;;;;;;;;;;5030797;28;20059;-71
2023/04/07 04:45:04;;;;;;;62.13;20.63;;;;;;;;;;5030513;28;20093;-71
2023/04/07 04:47:29;;;;;;;56.67;19.70;;;;;;;;;;5033014;28;20607;-71
2023/04/07 04:49:55;;;;;;;58.45;21.23;;;;;;;;;;5031772;28;20017;-71
2023/04/07 04:52:20;;;;;;;56.65;21.77;;;;;;;;;;5029687;28;20021;-71
2023/04/07 04:54:45;;;;;;;65.32;19.88;;;;;;;;;;5030701;28;20470;-71
2023/04/07 04:57:10;;;;;;;68.77;23.43;;;;;;;;;;5029909;28;20017;-71
2023/04/07 04:59:36;;;;;;;54.97;20.50;;;;;;;;;;5030633;28;20343;-71
2023/04/07 05:02:01;;;;;;;64.75;20.65;;;;;;;;;;5034846;28;20283;-71
2023/04/07 05:04:27;;;;;;;61.43;21.87;;;;;;;;;;5028920;28;20029;-70
2023/04/07 05:06:52;;;;;;;63.50;22.30;;;;;;;;;;5032507;28;20318;-70
2023/04/07 05:09:17;;;;;;;66.05;21.45;;;;;;;;;;5029944;28;20029;-71
2023/04/07 05:11:42;;;;;;;53.70;19.60;;;;;;;;;;5031276;28;20109;-71
2023/04/07 05:14:07;;;;;;;60.85;21.60;;;;;;;;;;5029180;28;20279;-71
2023/04/07 05:16:33;;;;;;;76.32;21.70;;;;;;;;;;5030309;28;20283;-71
2023/04/07 05:18:58;;;;;;;67.40;23.27;;;;;;;;;;5028018;28;20538;-71
2023/04/07 05:21:24;;;;;;;60.87;21.10;;;;;;;;;;5027702;28;20478;-71
2023/04/07 05:23:49;;;;;;;69.32;24.15;;;;;;;;;;5028696;28;20279;-71
2023/04/07 05:26:14;;;;;;;64.18;22.55;;;;;;;;;;5027840;28;20021;-71
2023/04/07 05:28:39;;;;;;;66.35;22.52;;;;;;;;;;5030161;28;20036;-71
2023/04/07 05:31:05;;;;;;;62.67;22.63;;;;;;;;;;5028596;28;20029;-71
2023/04/07 05:33:30;;;;;;;65.32;22.90;;;;;;;;;;5028519;28;20377;-72
2023/04/07 05:35:55;;;;;;;59.87;20.03;;;;;;;;;;5028961;28;20456;-71
2023/04/07 05:38:20;;;;;;;63.13;23.30;;;;;;;;;;5029724;28;20384;-70
2023/04/07 05:40:46;;;;;;;62.47;20.25;;;;;;;;;;5026147;28;20272;-71
2023/04/07 05:43:11;;;;;;;65.30;22.02;;;;;;;;;;5024835;28;20029;-71
2023/04/07 05:45:36;;;;;;;57.23;20.17;;;;;;;;;;5027723;28;20021;-71
2023/04/07 05:48:01;;;;;;;49.78;17.75;;;;;;;;;;5026965;28;20283;-71
2023/04/07 05:50:26;;;;;;;53.33;19.17;;;;;;;;;;5026263;28;20018;-71
2023/04/07 05:52:52;;;;;;;50.30;19.47;;;;;;;;;;5026220;28;20065;-71
2023/04/07 05:55:17;;;;;;;46.00;17.25;;;;;;;;;;5023602;28;20540;-71
2023/04/07 05:57:42;;;;;;;45.50;15.90;;;;;;;;;;5030282;28;20048;-71
2023/04/07 06:00:08;;;;;;;48.80;19.00;;;;;;;;;;5026929;28;20303;-70
2023/04/07 06:02:33;;;;;;;57.25;17.58;;;;;;;;;;5026166;28;20621;-71
2023/04/07 06:04:58;;;;;;;46.67;17.83;;;;;;;;;;5026042;28;20013;-71
2023/04/07 06:07:24;;;;;;;41.33;16.50;;;;;;;;;;5027212;28;20024;-71
2023/04/07 06:09:49;;;;;;;45.90;15.32;;;;;;;;;;5026832;28;20346;-71
2023/04/07 06:12:15;;;;;;;41.47;15.38;;;;;;;;;;5025360;28;20072;-71
2023/04/07 06:14:41;;;;;;;34.10;14.40;;;;;;;;;;5031338;28;20144;-71
2023/04/07 06:17:06;;;;;;;40.30;13.88;;;;;;;;;;5033605;28;20091;-70
2023/04/07 06:19:31;;;;;;;41.58;13.90;;;;;;;;;;5027729;28;20056;-70
2023/04/07 06:21:57;;;;;;;46.72;15.73;;;;;;;;;;5026425;28;20068;-70
2023/04/07 06:24:24;;;;;;;41.17;13.90;;;;;;;;;;5027154;28;20037;-70
2023/04/07 06:26:49;;;;;;;43.05;15.07;;;;;;;;;;5026421;28;20276;-71
2023/04/07 06:29:14;;;;;;;34.50;12.55;;;;;;;;;;5031053;28;20016;-71
2023/04/07 06:31:39;;;;;;;32.33;12.20;;;;;;;;;;5026991;28;20025;-71
2023/04/07 06:34:05;;;;;;;38.08;13.23;;;;;;;;;;5029992;28;20356;-71
2023/04/07 06:36:30;;;;;;;35.55;13.05;;;;;;;;;;5029045;28;20053;-70
2023/04/07 06:38:55;;;;;;;32.67;12.70;;;;;;;;;;5027410;28;20506;-70
2023/04/07 06:41:20;;;;;;;30.40;12.40;;;;;;;;;;5023502;28;20421;-71
2023/04/07 06:43:46;;;;;;;32.10;11.02;;;;;;;;;;5026616;28;20013;-71
2023/04/07 06:46:11;;;;;;;31.45;11.27;;;;;;;;;;5023871;28;20544;-71
2023/04/07 06:48:37;;;;;;;24.50;10.70;;;;;;;;;;5026066;28;20083;-71
2023/04/07 06:51:02;;;;;;;32.95;12.32;;;;;;;;;;5027558;28;20732;-70
2023/04/07 06:53:27;;;;;;;32.85;11.45;;;;;;;;;;5029593;28;20022;-70
2023/04/07 06:56:21;;;;;;;30.00;10.87;;;;;;;;;;5028945;28;20018;-69
2023/04/07 06:58:47;;;;;;;33.92;11.25;;;;;;;;;;5014609;28;20272;-69
2023/04/07 07:01:12;;;;;;;40.27;11.93;;;;;;;;;;5028204;28;20030;-69
2023/04/07 07:03:37;;;;;;;31.47;12.17;;;;;;;;;;5030043;28;20290;-69
2023/04/07 07:06:02;;;;;;;34.13;13.77;;;;;;;;;;5032447;28;20276;-69
2023/04/07 07:08:28;;;;;;;27.48;10.63;;;;;;;;;;5028880;28;20410;-69
2023/04/07 07:10:53;;;;;;;35.85;11.15;;;;;;;;;;5027850;28;20022;-69
2023/04/07 07:13:22;;;;;;;42.03;12.10;;;;;;;;;;5029657;28;20493;-69
2023/04/07 07:15:47;;;;;;;38.63;10.82;;;;;;;;;;5028213;28;20429;-69
2023/04/07 07:18:12;;;;;;;28.70;10.80;;;;;;;;;;5028534;28;20030;-69
2023/04/07 07:20:37;;;;;;;24.23;10.97;;;;;;;;;;5031940;28;20359;-69
2023/04/07 07:23:03;;;;;;;37.00;10.93;;;;;;;;;;5033637;28;20275;-71
2023/04/07 07:25:28;;;;;;;24.45;10.60;;;;;;;;;;5028086;28;20364;-70
2023/04/07 07:27:53;;;;;;;27.05;8.90;;;;;;;;;;5028990;28;20057;-70
2023/04/07 07:30:22;;;;;;;34.05;10.90;;;;;;;;;;5024329;28;20064;-70
2023/04/07 07:32:47;;;;;;;25.77;9.20;;;;;;;;;;5029846;28;20018;-70
2023/04/07 07:35:12;;;;;;;19.80;8.15;;;;;;;;;;5026962;28;20022;-70
2023/04/07 07:37:37;;;;;;;25.85;10.23;;;;;;;;;;5032497;28;20071;-70
2023/04/07 07:40:03;;;;;;;26.67;8.47;;;;;;;;;;5028119;28;20022;-69
2023/04/07 07:42:29;;;;;;;22.63;8.32;;;;;;;;;;5028913;28;20306;-69
2023/04/07 07:44:55;;;;;;;23.00;8.77;;;;;;;;;;5028321;28;20029;-69
2023/04/07 07:47:20;;;;;;;26.27;8.63;;;;;;;;;;5026100;28;20504;-69
2023/04/07 07:49:45;;;;;;;24.73;7.97;;;;;;;;;;5027096;28;20033;-69
2023/04/07 07:52:10;;;;;;;27.50;9.53;;;;;;;;;;5025285;28;20016;-70
2023/04/07 07:54:36;;;;;;;22.97;8.23;;;;;;;;;;5029138;28;20268;-70
2023/04/07 07:57:03;;;;;;;25.45;9.00;;;;;;;;;;5027022;28;20325;-70
2023/04/07 07:59:28;;;;;;;23.55;8.75;;;;;;;;;;5030396;28;20493;-70
2023/04/07 08:01:53;;;;;;;26.88;9.73;;;;;;;;;;5028359;28;20022;-70
2023/04/07 08:04:19;;;;;;;23.97;8.47;;;;;;;;;;5027084;28;20475;-70
2023/04/07 08:06:44;;;;;;;22.95;7.93;;;;;;;;;;5026650;28;20299;-70
2023/04/07 08:09:09;;;;;;;23.05;8.07;;;;;;;;;;5025180;28;20048;-70
2023/04/07 08:11:35;;;;;;;19.57;8.07;;;;;;;;;;5030806;28;20033;-70
2023/04/07 08:14:00;;;;;;;22.33;8.57;;;;;;;;;;5032603;28;20268;-70
2023/04/07 08:16:26;;;;;;;21.10;8.55;;;;;;;;;;5029762;28;20374;-70
2023/04/07 08:18:51;;;;;;;22.60;9.80;;;;;;;;;;5037182;28;20017;-70
2023/04/07 08:21:16;;;;;;;23.27;9.00;;;;;;;;;;5029619;28;20025;-70
2023/04/07 08:23:41;;;;;;;20.50;7.95;;;;;;;;;;5029850;28;20346;-70
2023/04/07 08:26:06;;;;;;;22.85;9.20;;;;;;;;;;5032706;28;20096;-70
2023/04/07 08:28:32;;;;;;;25.13;9.35;;;;;;;;;;5031874;28;20040;-70
2023/04/07 08:30:57;;;;;;;23.70;9.43;;;;;;;;;;5030358;28;20490;-70
2023/04/07 08:33:22;;;;;;;25.43;10.30;;;;;;;;;;5033406;28;20021;-70
2023/04/07 08:35:47;;;;;;;24.15;10.05;;;;;;;;;;5029792;28;20276;-70
2023/04/07 08:38:12;;;;;;;22.30;9.90;;;;;;;;;;5031684;28;20037;-70
2023/04/07 08:40:38;;;;;;;25.13;10.25;;;;;;;;;;5036217;28;20281;-70
2023/04/07 08:43:07;;;;;;;21.35;9.57;;;;;;;;;;5034514;28;20025;-70
2023/04/07 08:45:32;;;;;;;23.67;11.30;;;;;;;;;;5029066;28;20477;-70
2023/04/07 08:47:58;;;;;;;30.77;11.13;;;;;;;;;;5029811;28;20097;-70
2023/04/07 08:50:26;;;;;;;22.35;9.52;;;;;;;;;;5025851;28;20140;-70
2023/04/07 08:52:55;;;;;;;27.17;10.07;;;;;;;;;;5029515;28;20021;-70
2023/04/07 08:55:21;;;;;;;27.80;8.77;;;;;;;;;;5030384;28;20067;-70
2023/04/07 08:57:46;;;;;;;29.98;10.07;;;;;;;;;;5029023;28;20037;-70
2023/04/07 09:00:11;;;;;;;26.15;10.60;;;;;;;;;;5031463;28;20091;-70
2023/04/07 09:02:43;;;;;;;25.67;11.75;;;;;;;;;;5030078;28;20494;-70
2023/04/07 09:05:08;;;;;;;29.67;11.13;;;;;;;;;;5031218;28;20543;-70
2023/04/07 09:07:34;;;;;;;27.55;13.35;;;;;;;;;;5030032;28;20017;-70
2023/04/07 09:10:00;;;;;;;24.63;10.35;;;;;;;;;;5028876;28;20048;-69
2023/04/07 09:12:28;;;;;;;27.75;10.75;;;;;;;;;;5030248;28;20474;-69
2023/04/07 09:14:54;;;;;;;29.20;11.98;;;;;;;;;;5031651;28;20105;-69
2023/04/07 09:17:20;;;;;;;26.35;9.77;;;;;;;;;;5032543;28;20009;-70
2023/04/07 09:19:45;;;;;;;24.15;11.05;;;;;;;;;;5031138;28;20017;-71
2023/04/07 09:22:13;;;;;;;28.33;10.90;;;;;;;;;;5036760;28;20017;-71
2023/04/07 09:24:38;;;;;;;27.55;10.07;;;;;;;;;;5025764;28;20137;-70
2023/04/07 09:27:13;;;;;;;21.65;8.88;;;;;;;;;;5029849;28;20108;-71
2023/04/07 09:29:39;;;;;;;28.67;10.10;;;;;;;;;;5030708;28;20037;-71
2023/04/07 09:32:05;;;;;;;27.92;11.30;;;;;;;;;;5028751;28;20021;-71
2023/04/07 09:34:35;;;;;;;33.65;11.75;;;;;;;;;;5028977;28;20021;-71
2023/04/07 09:37:00;;;;;;;;;;;;;;;;;;5027877;28;20020;-70
2023/04/07 09:39:26;;;;;;;26.55;9.57;;;;;;;;;;5027832;28;20294;-70
2023/04/07 09:41:51;;;;;;;27.13;11.05;;;;;;;;;;5031590;28;20152;-70
2023/04/07 09:44:20;;;;;;;26.50;10.90;;;;;;;;;;5030839;28;20025;-70
2023/04/07 09:46:53;;;;;;;27.98;10.18;;;;;;;;;;5029671;28;20033;-70
2023/04/07 09:49:19;;;;;;;23.58;9.52;;;;;;;;;;5029344;28;20025;-70
2023/04/07 09:51:58;;;;;;;23.02;9.43;;;;;;;;;;5029144;28;20086;-70
2023/04/07 09:54:33;;;;;;;28.27;11.00;;;;;;;;;;5029565;28;20017;-71
2023/04/07 09:57:00;;;;;;;19.67;8.55;;;;;;;;;;5017184;28;20434;-70
2023/04/07 09:59:25;;;;;;;20.38;9.07;;;;;;;;;;5033604;28;20024;-70
2023/04/07 10:01:50;;;;;;;31.50;9.90;;;;;;;;;;5024471;28;20025;-70
2023/04/07 10:04:16;;;;;;;22.67;8.07;;;;;;;;;;5029482;28;20284;-70
2023/04/07 10:06:42;;;;;;;25.50;10.38;;;;;;;;;;5026911;28;20124;-70
2023/04/07 10:09:09;;;;;;;23.30;9.68;;;;;;;;;;5029207;28;20021;-70
2023/04/07 10:11:36;;;;;;;19.77;7.43;;;;;;;;;;5027158;28;20056;-70
2023/04/07 10:14:01;;;;;;;18.83;8.70;;;;;;;;;;5023124;28;20026;-71
2023/04/07 10:16:26;;;;;;;20.27;9.07;;;;;;;;;;5021742;28;20022;-70
2023/04/07 10:18:51;;;;;;;31.37;9.17;;;;;;;;;;5028625;28;20366;-70
2023/04/07 10:21:17;;;;;;;18.87;8.23;;;;;;;;;;5023782;28;20284;-71
2023/04/07 10:23:48;;;;;;;23.58;9.57;;;;;;;;;;5020567;28;20292;-71
2023/04/07 10:26:15;;;;;;;21.23;9.23;;;;;;;;;;5024238;28;20021;-70
2023/04/07 10:28:42;;;;;;;21.00;7.75;;;;;;;;;;5028345;28;20087;-70
2023/04/07 10:31:07;;;;;;;25.45;9.15;;;;;;;;;;5026394;28;20041;-71
2023/04/07 10:33:53;;;;;;;24.50;9.30;;;;;;;;;;5024227;28;20386;-71
2023/04/07 10:36:20;;;;;;;32.97;11.68;;;;;;;;;;5027027;28;20021;-70
2023/04/07 10:39:04;;;;;;;27.23;10.48;;;;;;;;;;5032849;28;20036;-71
2023/04/07 10:41:36;;;;;;;31.15;10.75;;;;;;;;;;5028371;28;20032;-71
2023/04/07 10:44:02;;;;;;;35.83;13.82;;;;;;;;;;5030511;28;20071;-71
2023/04/07 10:46:47;;;;;;;29.10;11.02;;;;;;;;;;5026769;28;20024;-71
2023/04/07 10:49:12;;;;;;;31.30;11.73;;;;;;;;;;5029918;28;20505;-69
2023/04/07 10:51:38;;;;;;;25.48;11.32;;;;;;;;;;5027881;28;20029;-70
2023/04/07 10:54:21;;;;;;;29.70;11.77;;;;;;;;;;5029191;28;20026;-70
2023/04/07 10:57:02;;;;;;;34.38;10.68;;;;;;;;;;5027502;28;20013;-70
2023/04/07 10:59:30;;;;;;;28.60;11.55;;;;;;;;;;5027811;28;20110;-70
2023/04/07 11:02:13;;;;;;;29.38;12.18;;;;;;;;;;5029142;28;20033;-71
2023/04/07 11:04:39;;;;;;;29.55;11.15;;;;;;;;;;5033867;28;20078;-71
2023/04/07 11:07:04;;;;;;;34.00;11.98;;;;;;;;;;5029920;28;20026;-71
2023/04/07 11:09:30;;;;;;;40.63;11.98;;;;;;;;;;5029278;28;20165;-70
2023/04/07 11:11:55;;;;;;;25.58;11.55;;;;;;;;;;5028331;28;20025;-70
2023/04/07 11:14:27;;;;;;;37.30;12.53;;;;;;;;;;5029569;28;20103;-70
2023/04/07 11:16:52;;;;;;;31.20;12.10;;;;;;;;;;5024337;28;20757;-71
2023/04/07 11:19:17;;;;;;;31.45;12.18;;;;;;;;;;5030899;28;20033;-70
2023/04/07 11:21:42;;;;;;;32.92;11.90;;;;;;;;;;5024255;28;20031;-70
2023/04/07 11:24:08;;;;;;;25.90;11.30;;;;;;;;;;5028202;28;20439;-70
2023/04/07 11:26:37;;;;;;;30.63;11.73;;;;;;;;;;5025829;28;20521;-69
2023/04/07 11:29:02;;;;;;;28.80;12.55;;;;;;;;;;5028423;28;20640;-70
2023/04/07 11:31:28;;;;;;;27.17;11.40;;;;;;;;;;5025784;28;20030;-69
2023/04/07 11:33:54;;;;;;;32.60;11.18;;;;;;;;;;5024792;28;20271;-69
2023/04/07 11:36:27;;;;;;;38.60;12.85;;;;;;;;;;5029723;28;20100;-70
2023/04/07 11:38:52;;;;;;;22.75;10.55;;;;;;;;;;5030796;28;20022;-69
2023/04/07 11:41:17;;;;;;;24.40;10.05;;;;;;;;;;5031005;28;20108;-70
2023/04/07 11:43:43;;;;;;;31.33;11.10;;;;;;;;;;5031930;28;20478;-70
2023/04/07 11:46:09;;;;;;;20.23;9.10;;;;;;;;;;5032568;28;20352;-70
2023/04/07 11:48:35;;;;;;;22.27;10.43;;;;;;;;;;5029273;28;20108;-69
2023/04/07 11:51:01;;;;;;;28.77;10.75;;;;;;;;;;5031449;28;20561;-69
2023/04/07 11:53:27;;;;;;;29.23;9.55;;;;;;;;;;5030196;28;20018;-68
2023/04/07 11:55:59;;;;;;;26.73;10.23;;;;;;;;;;5030764;28;20064;-68
2023/04/07 11:58:25;;;;;;;27.02;10.63;;;;;;;;;;5030340;28;20020;-68
2023/04/07 12:00:54;;;;;;;35.00;13.68;;;;;;;;;;5029526;28;20021;-68
2023/04/07 12:03:19;;;;;;;24.23;10.00;;;;;;;;;;5031480;28;20105;-69
2023/04/07 12:05:45;;;;;;;25.98;11.57;;;;;;;;;;5029638;28;20112;-69
2023/04/07 12:08:10;;;;;;;34.00;12.90;;;;;;;;;;5034296;28;20100;-69
2023/04/07 12:10:39;;;;;;;29.10;11.80;;;;;;;;;;5029700;28;20025;-68
2023/04/07 12:13:05;;;;;;;37.67;13.05;;;;;;;;;;5026736;28;20510;-68
2023/04/07 12:15:30;;;;;;;32.35;12.32;;;;;;;;;;5027779;28;20068;-68
2023/04/07 12:17:55;;;;;;;39.00;13.70;;;;;;;;;;5030835;28;20444;-68
2023/04/07 12:20:20;;;;;;;38.97;15.15;;;;;;;;;;5031633;28;20438;-68
2023/04/07 12:22:46;;;;;;;38.30;15.87;;;;;;;;;;5030030;28;20586;-68
2023/04/07 12:25:11;;;;;;;38.15;15.70;;;;;;;;;;5034440;28;20322;-68
2023/04/07 12:27:36;;;;;;;35.58;13.00;;;;;;;;;;5027657;28;20021;-68
2023/04/07 12:30:03;;;;;;;30.58;13.57;;;;;;;;;;5031065;28;20021;-68
2023/04/07 12:32:28;;;;;;;27.77;12.10;;;;;;;;;;5029839;28;20374;-68
2023/04/07 12:34:53;;;;;;;25.95;11.30;;;;;;;;;;5031372;28;20035;-68
2023/04/07 12:37:18;;;;;;;17.90;9.90;;;;;;;;;;5028544;28;20088;-68
2023/04/07 12:39:43;;;;;;;22.15;9.80;;;;;;;;;;5030834;28;20021;-68
2023/04/07 12:42:10;;;;;;;29.90;11.50;;;;;;;;;;5031238;28;20033;-68
2023/04/07 12:44:36;;;;;;;26.60;11.20;;;;;;;;;;5027540;28;20354;-68
2023/04/07 12:47:01;;;;;;;27.10;12.98;;;;;;;;;;5031330;28;20108;-68
2023/04/07 12:49:26;;;;;;;26.77;12.70;;;;;;;;;;5031370;28;20483;-68
2023/04/07 12:51:51;;;;;;;23.87;12.43;;;;;;;;;;5029227;28;20371;-68
2023/04/07 12:54:17;;;;;;;19.33;9.37;;;;;;;;;;5031356;28;20271;-67
2023/04/07 12:56:42;;;;;;;24.48;10.48;;;;;;;;;;5027986;28;20509;-69
2023/04/07 12:59:08;;;;;;;23.23;10.02;;;;;;;;;;5030920;28;20032;-68
2023/04/07 13:01:34;;;;;;;19.13;8.93;;;;;;;;;;5024089;28;20021;-67
2023/04/07 13:03:59;;;;;;;21.20;9.07;;;;;;;;;;5027041;28;20025;-68
2023/04/07 13:06:24;;;;;;;17.73;8.65;;;;;;;;;;5028917;28;20028;-68
2023/04/07 13:08:50;;;;;;;22.08;9.80;;;;;;;;;;5026461;28;20112;-68
2023/04/07 13:11:15;;;;;;;18.52;9.55;;;;;;;;;;5026598;28;20382;-68
2023/04/07 13:13:41;;;;;;;19.75;9.00;;;;;;;;;;5025243;28;20143;-68
2023/04/07 13:16:06;;;;;;;23.42;9.25;;;;;;;;;;5026332;28;20018;-68
2023/04/07 13:18:31;;;;;;;19.42;10.15;;;;;;;;;;5027357;28;20013;-68
2023/04/07 13:20:57;;;;;;;21.27;9.83;;;;;;;;;;5027121;28;20036;-69
2023/04/07 13:23:22;;;;;;;20.83;10.30;;;;;;;;;;5024191;28;20363;-70
2023/04/07 13:25:47;;;;;;;21.17;10.40;;;;;;;;;;5028664;28;20028;-70
2023/04/07 13:28:12;;;;;;;19.63;10.75;;;;;;;;;;5029204;28;20744;-70
2023/04/07 13:30:38;;;;;;;18.65;8.85;;;;;;;;;;5028079;28;20036;-69
2023/04/07 13:33:03;;;;;;;21.92;9.10;;;;;;;;;;5027442;28;20481;-69
2023/04/07 13:35:32;;;;;;;20.17;8.10;;;;;;;;;;5028109;28;20013;-68
2023/04/07 13:37:57;;;;;;;21.35;9.40;;;;;;;;;;5026318;28;20029;-69
2023/04/07 13:40:23;;;;;;;18.55;9.00;;;;;;;;;;5028596;28;20022;-69
2023/04/07 13:42:48;;;;;;;21.77;9.23;;;;;;;;;;5030998;28;20026;-70
2023/04/07 13:45:13;;;;;;;19.02;8.82;;;;;;;;;;5028305;28;20652;-70
2023/04/07 13:47:38;;;;;;;17.77;8.13;;;;;;;;;;5028017;28;20659;-68
2023/04/07 13:50:04;;;;;;;18.60;9.47;;;;;;;;;;5029392;28;20076;-69
2023/04/07 13:52:31;;;;;;;20.85;9.25;;;;;;;;;;5026406;28;20288;-69
2023/04/07 13:54:56;;;;;;;16.48;8.30;;;;;;;;;;5031608;28;20425;-69
2023/04/07 13:57:22;;;;;;;18.45;8.25;;;;;;;;;;5029257;28;20049;-70
2023/04/07 13:59:48;;;;;;;19.05;8.15;;;;;;;;;;5027828;28;20482;-69
2023/04/07 14:02:13;;;;;;;17.52;7.88;;;;;;;;;;5028409;28;20033;-69
2023/04/07 14:04:38;;;;;;;13.65;7.47;;;;;;;;;;5028372;28;20119;-70
2023/04/07 14:07:04;;;;;;;16.85;8.77;;;;;;;;;;5029106;28;20437;-69
2023/04/07 14:09:29;;;;;;;14.27;8.30;;;;;;;;;;5028167;28;20033;-70
2023/04/07 14:11:54;;;;;;;20.60;9.50;;;;;;;;;;5028286;28;20938;-70
2023/04/07 14:14:19;;;;;;;20.60;8.37;;;;;;;;;;5029593;28;20029;-71